Ana Sayfa
METAR-TAF:

METAR-TAF

Havaalanları :

Gilmer Municipal Airport (Fox Stephens Field)

Gilmer, Teksas, Amerika Birleşik Devletleri

Enlem: 32-41-56N, Boylam: 094-56-55W, yükseklik: 127 m

Güncel hava durumu gözlemi

Rapor saat 14:55 UTC de 27 dakika önce yapıldı.
Rüzgar güneybatıdan 6 kt
Sıcaklık 30°C
Nem 66%
Basınç 1015 hPa
Görüş mesafesi: 16.1 km
100 ft yükseklikte parçalı bulutlu
1700 ft yükseklikte parçalı bulutlu

METAR: KJXI 251455Z AUTO 22006KT 10SM SCT001 SCT017 30/23 A2998 RMK AO2 T02960226

Saat: 10:22 (15:22 UTC)


TAF: eksik

4.000'den fazla havaalanı için hava durumu gözlemleri ve tahminleri (METAR ve TAF raporları).

Kullanılabilir istasyonlar harita üzerinde sarı ve kırmızı noktalarla gösterilir.

İstasyonun adını görmek için fareyi noktanın üzerinde gezdirin.

Sonrasında hava gözlem ve tahminlerini görmek için tıklayın.

Haritayı değiştirmek için: yaklaştırmak için siyah artı işaretli yeşil düğmeye ve uzaklaştırmak için de eksi işaretli düğmeye hızla tıklayın; bitişik haritalar için yeşil okları kullanın.


METAR-TAF: